< < Back
Terminal Aerodrome Forecast


Current Version              Previous Versions:   1  2  3  4  5  6  7  8  9  

Terminal Aerodrome Forecast

420
FTUS44 KBMX 301720
TAFMGM
TAF
KMGM 301720Z 3018/0118 VRB04KT P6SM SCT050
     FM302100 20007KT P6SM SCT050
     FM010000 18005KT P6SM SCT050=

Latest METAR

818
SAUS80 KWBC 302300 RRD
MTRMGM
METAR KMGM 302253Z 18007KT 10SM CLR 31/22 A2992 RMK AO2 SLP129
T03110217


USA.gov is the U.S. government's official web portal to all federal, state and local government web resources and services.